Anderson, AL

12:56 PM CDT on October 31, 2014 (GMT -0500)
KTNLEOMA2 | Change Station
CLOSE
Current Station
Personal Weather Station
Location: Leoma, TN
Elevation: 958 ft
Nearby Weather Stations
Active Advisory: Freeze Warning

Elev 958 ft 35.10 °N, 87.35 °W | Updated 3 seconds ago

Overcast
Overcast
53.3 °F
Feels Like 53.3 °F
N
2.0
Wind Variable Wind from NE
Gusts 4.0 mph

Today
High -- | Low -- °F
--% Chance of Precip.
Yesterday
High -- | Low -- °F
Precip. -- in
7:09 AM 5:55 PM
First Quarter, 57% visible
Pressure 30.04 in
Visibility 10.0 miles
Clouds Scattered Clouds 4600 ft
Overcast 5500 ft
Dew Point 48 °F
Humidity 82%
Rainfall 0.00 in
Snow Depth Not available.
UV 2 out of 12
Pollen .90 out of 12
Air Quality Not available.
Flu Activity Not available.
METAR KMSL 311653Z AUTO 34004KT 10SM SCT046 OVC055 15/06 A3004 RMK AO2 SLP170 T01500061 $

More Conditions Fewer Conditions

Pressure 30.04 in
Visibility 10.0 miles
Clouds Scattered Clouds 4600 ft
Overcast 5500 ft
Dew Point 48 °F
Humidity 82%
Rainfall 0.00 in
Snow Depth Not available.
UV 2 out of 12
Pollen .90 out of 12
Air Quality Not available.
Flu Activity Not available.
METAR KMSL 311653Z AUTO 34004KT 10SM SCT046 OVC055 15/06 A3004 RMK AO2 SLP170 T01500061 $

More Conditions Fewer Conditions

10-Day Weather Forecast

Almanac

Astronomy

Oct. 31, 2014 Rise Set
Actual Time
Civil Twilight
Nautical Twilight
Astronomical Twilight
Moon
Length of Visible Light
Length of Day
Tomorrow will be .
, % of the Moon is Illuminated

Today's Extremes

State Highs State Lows

Community

WunderPhotos

Upload Photos

1,766,673 photos uploaded!

WunderBlogs® & News

Nearby

Air Quality

  Air Quality AQ Index Pollutant
Not available.

Snow Depth

Station Depth Elevation

Earthquake Activity

City Distance Mag. Time & Date
Minimum magnitude displayed is 2.5.

Coastal Water Temperatures

Place Temperature

Nearby Weather Stations